createdAt,value
2022-08-03T03:42:53.834Z,100533.28
2022-08-03T03:45:58.658Z,100533.28
2022-08-03T03:49:01.292Z,100534.66
2022-08-03T03:52:08.605Z,100536.97
2022-08-03T03:55:16.313Z,100534.81
2022-08-03T03:58:22.126Z,100535.22
2022-08-03T04:01:27.767Z,100534.97
2022-08-03T04:04:51.292Z,100532.81
2022-08-03T04:08:28.846Z,100537.44
2022-08-03T04:11:43.532Z,100543.56
2022-08-03T04:14:49.411Z,100546.25
2022-08-03T04:17:56.015Z,100550.53
2022-08-03T04:21:08.595Z,100552.13
2022-08-03T04:24:15.477Z,100559.75
2022-08-03T04:27:21.368Z,100555.87
2022-08-03T04:30:27.495Z,100559.66
2022-08-03T04:33:33.396Z,100562.69
2022-08-03T04:36:44.692Z,100559.59
2022-08-03T04:39:49.524Z,100564.66
2022-08-03T04:42:55.791Z,100559.47
2022-08-03T04:45:59.510Z,100570.59
2022-08-03T04:49:03.321Z,100574.41
2022-08-03T04:52:09.999Z,100572.16
2022-08-03T04:55:13.127Z,100585.91
2022-08-03T04:58:15.796Z,100588.38
2022-08-03T05:01:20.565Z,100584.25
2022-08-03T05:04:23.123Z,100592.78
2022-08-03T05:07:25.939Z,100603.59
2022-08-03T05:10:28.619Z,100604.91
2022-08-03T05:13:31.469Z,100596.06
2022-08-03T05:16:34.132Z,100599.37
2022-08-03T05:19:36.798Z,100608.41
2022-08-03T05:22:39.291Z,100611.09
2022-08-03T05:25:49.745Z,100618.34
2022-08-03T05:28:53.508Z,100620.47
2022-08-03T05:31:56.328Z,100617.19
2022-08-03T05:34:59.580Z,100623.97
2022-08-03T05:38:28.798Z,100624.81
2022-08-03T05:41:37.657Z,100629.63
2022-08-03T05:44:42.126Z,100629.84
2022-08-03T05:47:45.346Z,100629.50
2022-08-03T05:50:48.336Z,100634.72
2022-08-03T05:53:50.885Z,100633.84
2022-08-03T05:56:53.776Z,100627.97
2022-08-03T05:59:58.787Z,100635.72
2022-08-03T06:03:02.470Z,100636.38
2022-08-03T06:06:05.398Z,100634.78
2022-08-03T06:09:08.006Z,100639.34
2022-08-03T06:12:14.076Z,100638.59
2022-08-03T06:15:18.706Z,100646.50
2022-08-03T06:18:21.619Z,100646.66
2022-08-03T06:21:24.084Z,100646.78
2022-08-03T06:24:30.022Z,100652.88
2022-08-03T06:27:37.237Z,100650.69
2022-08-03T06:30:41.827Z,100647.56
2022-08-03T06:34:31.327Z,100650.53
2022-08-03T06:37:07.299Z,100654.09
2022-08-03T06:40:11.649Z,100649.59
2022-08-03T06:43:16.782Z,100642.94
2022-08-03T06:46:19.774Z,100653.09
2022-08-03T06:49:22.663Z,100661.31
2022-08-03T06:52:37.629Z,100660.41
2022-08-03T06:55:42.517Z,100658.22
2022-08-03T06:58:46.977Z,100665.00
2022-08-03T07:01:50.159Z,100665.69
2022-08-03T07:04:52.705Z,100659.72
2022-08-03T07:07:57.216Z,100658.78
2022-08-03T07:10:59.872Z,100660.50
2022-08-03T07:14:02.764Z,100659.34
2022-08-03T07:17:11.651Z,100660.66
2022-08-03T07:20:15.323Z,100660.56
2022-08-03T07:23:19.114Z,100670.87
2022-08-03T07:26:22.400Z,100668.84
2022-08-03T07:29:25.076Z,100663.94
2022-08-03T07:32:31.478Z,100672.88
2022-08-03T07:35:34.294Z,100667.31
2022-08-03T07:38:37.156Z,100671.72
2022-08-03T07:41:39.598Z,100662.75
2022-08-03T07:44:45.394Z,100666.12
2022-08-03T07:47:53.215Z,100667.28
2022-08-03T07:50:56.909Z,100669.81
2022-08-03T07:54:00.844Z,100663.56
2022-08-03T07:57:03.843Z,100656.94
2022-08-03T08:00:12.679Z,100657.28
2022-08-03T08:03:16.048Z,100653.81
2022-08-03T08:06:18.634Z,100653.78
2022-08-03T08:09:21.418Z,100659.91
2022-08-03T08:12:23.859Z,100658.22
2022-08-03T08:15:26.641Z,100663.59
2022-08-03T08:18:32.539Z,100655.28
2022-08-03T08:22:02.052Z,100656.09
2022-08-03T08:25:04.453Z,100646.13
2022-08-03T08:28:31.872Z,100648.47
2022-08-03T08:31:30.018Z,100657.41
2022-08-03T08:34:32.759Z,100656.84
2022-08-03T08:37:35.612Z,100650.37
2022-08-03T08:40:41.599Z,100651.50
2022-08-03T08:43:44.187Z,100652.81
2022-08-03T08:46:48.111Z,100660.16
2022-08-03T08:50:09.204Z,100658.16
2022-08-03T08:53:17.617Z,100650.56
2022-08-03T08:56:25.644Z,100651.31
2022-08-03T08:59:47.671Z,100645.06
2022-08-03T09:02:51.034Z,100646.16
2022-08-03T09:05:56.208Z,100641.69
2022-08-03T09:08:59.051Z,100637.50
2022-08-03T09:12:27.183Z,100639.19
2022-08-03T09:15:26.763Z,100643.56
2022-08-03T09:18:32.555Z,100630.56
2022-08-03T09:21:35.746Z,100639.34
2022-08-03T09:25:14.969Z,100636.69
2022-08-03T09:28:58.154Z,100637.56
2022-08-03T09:31:46.560Z,100633.78
2022-08-03T09:34:54.229Z,100632.12
2022-08-03T09:38:16.765Z,100632.59
2022-08-03T09:41:19.815Z,100636.69
2022-08-03T09:44:35.832Z,100629.38
2022-08-03T09:47:45.061Z,100636.03
2022-08-03T09:51:13.377Z,100622.44
2022-08-03T09:54:27.683Z,100622.88
2022-08-03T09:57:33.377Z,100618.06
2022-08-03T10:01:04.184Z,100617.47
2022-08-03T10:04:16.948Z,100614.09
2022-08-03T10:07:24.667Z,100609.50
2022-08-03T10:10:43.469Z,100609.31
2022-08-03T10:13:46.201Z,100606.59
2022-08-03T10:16:49.640Z,100615.81
2022-08-03T10:19:52.487Z,100600.59
2022-08-03T10:22:56.396Z,100599.00
2022-08-03T10:26:02.952Z,100594.31
2022-08-03T10:29:12.393Z,100596.56
2022-08-03T10:32:26.281Z,100598.00
2022-08-03T10:35:30.130Z,100591.94
2022-08-03T10:38:49.582Z,100587.22
2022-08-03T10:41:54.657Z,100580.75
2022-08-03T10:45:06.581Z,100589.00
2022-08-03T10:48:10.521Z,100580.63
2022-08-03T10:51:13.727Z,100564.72
2022-08-03T10:55:11.052Z,100566.16
2022-08-03T10:58:13.758Z,100571.16
2022-08-03T11:01:58.100Z,100568.66
2022-08-03T11:05:42.103Z,100557.03
2022-08-03T11:08:45.817Z,100557.38
2022-08-03T11:11:48.923Z,100548.72
2022-08-03T11:14:53.667Z,100544.75
2022-08-03T11:18:11.289Z,100540.12
2022-08-03T11:21:14.679Z,100534.81
2022-08-03T11:24:51.531Z,100545.00
2022-08-03T11:28:28.399Z,100540.75
2022-08-03T11:31:49.309Z,100531.31
2022-08-03T11:35:13.322Z,100523.75
2022-08-03T11:38:15.987Z,100521.75
2022-08-03T11:41:43.311Z,100520.31
2022-08-03T11:44:49.043Z,100515.50
2022-08-03T11:47:55.818Z,100521.38
2022-08-03T11:50:58.835Z,100518.31
2022-08-03T11:54:03.988Z,100519.22
2022-08-03T11:57:06.867Z,100517.78
2022-08-03T12:00:32.965Z,100518.19
2022-08-03T12:03:36.346Z,100515.72
2022-08-03T12:06:57.238Z,100510.25
2022-08-03T12:10:12.243Z,100513.69
2022-08-03T12:14:35.673Z,100508.28
2022-08-03T12:16:38.554Z,100506.47
2022-08-03T12:19:44.724Z,100506.84
2022-08-03T12:22:48.051Z,100504.13
2022-08-03T12:25:50.944Z,100503.94
2022-08-03T12:28:53.882Z,100499.41
2022-08-03T12:31:56.799Z,100486.69
2022-08-03T12:35:01.667Z,100486.38
2022-08-03T12:38:06.774Z,100479.78
2022-08-03T12:41:13.674Z,100477.34
2022-08-03T12:44:16.427Z,100462.50
2022-08-03T12:47:19.591Z,100470.97
2022-08-03T12:50:26.587Z,100450.19
2022-08-03T12:53:30.260Z,100450.13
2022-08-03T12:56:33.113Z,100442.31
2022-08-03T12:59:53.242Z,100450.66
2022-08-03T13:03:39.588Z,100451.91
2022-08-03T13:06:26.861Z,100450.41
2022-08-03T13:09:32.684Z,100449.19
2022-08-03T13:12:49.680Z,100449.22
2022-08-03T13:15:54.725Z,100431.78
2022-08-03T13:18:57.926Z,100435.56
2022-08-03T13:22:04.684Z,100435.94
2022-08-03T13:25:08.527Z,100429.87
2022-08-03T13:28:14.328Z,100423.66
2022-08-03T13:31:17.500Z,100424.75
2022-08-03T13:34:23.422Z,100423.56
2022-08-03T13:37:27.255Z,100426.44
2022-08-03T13:40:36.745Z,100419.56
2022-08-03T13:43:44.680Z,100421.00
2022-08-03T13:46:49.583Z,100411.47
2022-08-03T13:50:00.818Z,100402.56
2022-08-03T13:53:04.816Z,100400.78
2022-08-03T13:56:07.639Z,100397.28
2022-08-03T13:59:11.086Z,100398.00
2022-08-03T14:02:14.117Z,100382.34
2022-08-03T14:05:20.058Z,100386.28
2022-08-03T14:08:23.028Z,100386.78
2022-08-03T14:11:26.108Z,100375.31
2022-08-03T14:14:48.797Z,100363.13
2022-08-03T14:17:51.686Z,100358.72
2022-08-03T14:20:56.439Z,100358.38
2022-08-03T14:24:00.863Z,100362.25
2022-08-03T14:27:09.021Z,100362.94
2022-08-03T14:30:13.273Z,100344.94
2022-08-03T14:33:16.078Z,100351.72
2022-08-03T14:36:19.136Z,100341.19
2022-08-03T14:39:23.114Z,100338.66
2022-08-03T14:42:26.178Z,100332.53
2022-08-03T14:45:28.721Z,100320.88
2022-08-03T14:50:29.293Z,100326.59
2022-08-03T14:51:54.207Z,100317.12
2022-08-03T14:54:57.396Z,100323.44
2022-08-03T14:58:02.881Z,100310.25
2022-08-03T15:02:04.438Z,100325.97
2022-08-03T15:04:30.146Z,100329.72
2022-08-03T15:07:33.144Z,100334.03
2022-08-03T15:10:40.280Z,100338.06
2022-08-03T15:13:43.594Z,100335.44
2022-08-03T15:16:46.171Z,100327.19
2022-08-03T15:20:03.303Z,100329.59
